sensor_id;sensor_type;location;lat;lon;timestamp;temperature;humidity
9403;DHT22;4741;49.834;10.740;2022-10-31T06:00:04;9.70;99.90
9403;DHT22;4741;49.834;10.740;2022-10-31T06:02:30;10.10;99.90
9403;DHT22;4741;49.834;10.740;2022-10-31T06:05:00;9.30;99.90
9403;DHT22;4741;49.834;10.740;2022-10-31T06:07:31;9.50;99.90
9403;DHT22;4741;49.834;10.740;2022-10-31T06:09:58;9.40;99.90
9403;DHT22;4741;49.834;10.740;2022-10-31T06:12:24;9.40;99.90
9403;DHT22;4741;49.834;10.740;2022-10-31T06:14:51;9.60;99.90
9403;DHT22;4741;49.834;10.740;2022-10-31T06:17:17;9.60;99.90
9403;DHT22;4741;49.834;10.740;2022-10-31T06:19:44;9.70;99.90
9403;DHT22;4741;49.834;10.740;2022-10-31T06:22:10;9.40;99.90
9403;DHT22;4741;49.834;10.740;2022-10-31T06:24:39;9.60;99.90
9403;DHT22;4741;49.834;10.740;2022-10-31T06:27:06;9.80;99.90
9403;DHT22;4741;49.834;10.740;2022-10-31T06:29:56;9.50;99.90
9403;DHT22;4741;49.834;10.740;2022-10-31T06:32:23;9.80;99.90
9403;DHT22;4741;49.834;10.740;2022-10-31T06:34:50;11.30;99.90
9403;DHT22;4741;49.834;10.740;2022-10-31T06:37:16;9.70;99.90
9403;DHT22;4741;49.834;10.740;2022-10-31T06:39:43;9.30;99.90
9403;DHT22;4741;49.834;10.740;2022-10-31T06:42:10;10.00;99.90
9403;DHT22;4741;49.834;10.740;2022-10-31T06:44:36;9.90;99.90
9403;DHT22;4741;49.834;10.740;2022-10-31T06:47:04;10.00;99.90
9403;DHT22;4741;49.834;10.740;2022-10-31T06:49:31;10.00;99.90
9403;DHT22;4741;49.834;10.740;2022-10-31T07:18:55;10.50;99.90
9403;DHT22;4741;49.834;10.740;2022-10-31T07:21:22;12.00;99.90
9403;DHT22;4741;49.834;10.740;2022-10-31T07:33:37;10.60;99.90
9403;DHT22;4741;49.834;10.740;2022-10-31T07:36:03;10.40;99.90
9403;DHT22;4741;49.834;10.740;2022-10-31T08:10:23;10.90;99.90
9403;DHT22;4741;49.834;10.740;2022-10-31T08:12:56;10.70;99.90
9403;DHT22;4741;49.834;10.740;2022-10-31T08:20:18;10.90;99.90
9403;DHT22;4741;49.834;10.740;2022-10-31T08:22:58;11.10;99.90
9403;DHT22;4741;49.834;10.740;2022-10-31T08:25:25;11.30;99.90
9403;DHT22;4741;49.834;10.740;2022-10-31T08:27:52;11.20;99.90
9403;DHT22;4741;49.834;10.740;2022-10-31T08:30:24;11.00;99.90
9403;DHT22;4741;49.834;10.740;2022-10-31T08:33:24;11.20;99.90
9403;DHT22;4741;49.834;10.740;2022-10-31T08:35:44;11.30;99.90
9403;DHT22;4741;49.834;10.740;2022-10-31T08:38:11;12.60;99.90
9403;DHT22;4741;49.834;10.740;2022-10-31T08:40:38;12.40;99.90
9403;DHT22;4741;49.834;10.740;2022-10-31T08:43:12;11.60;99.90
9403;DHT22;4741;49.834;10.740;2022-10-31T08:45:39;11.40;99.90
9403;DHT22;4741;49.834;10.740;2022-10-31T08:48:06;11.00;99.90
9403;DHT22;4741;49.834;10.740;2022-10-31T08:50:34;10.60;99.90
9403;DHT22;4741;49.834;10.740;2022-10-31T08:53:01;11.00;99.90
9403;DHT22;4741;49.834;10.740;2022-10-31T08:55:34;12.70;99.90
9403;DHT22;4741;49.834;10.740;2022-10-31T08:58:02;10.90;99.90
9403;DHT22;4741;49.834;10.740;2022-10-31T09:00:29;11.70;99.90
9403;DHT22;4741;49.834;10.740;2022-10-31T09:02:56;11.80;99.90
9403;DHT22;4741;49.834;10.740;2022-10-31T09:05:24;13.20;99.90
9403;DHT22;4741;49.834;10.740;2022-10-31T09:07:51;11.80;99.90
9403;DHT22;4741;49.834;10.740;2022-10-31T09:10:18;13.50;99.90
9403;DHT22;4741;49.834;10.740;2022-10-31T09:12:44;13.40;99.90
9403;DHT22;4741;49.834;10.740;2022-10-31T09:15:11;13.30;99.90
9403;DHT22;4741;49.834;10.740;2022-10-31T09:17:38;13.30;99.90
9403;DHT22;4741;49.834;10.740;2022-10-31T09:20:04;12.40;99.90
9403;DHT22;4741;49.834;10.740;2022-10-31T09:22:31;11.80;99.90
9403;DHT22;4741;49.834;10.740;2022-10-31T09:24:58;11.20;99.90
9403;DHT22;4741;49.834;10.740;2022-10-31T09:27:24;13.60;99.90
9403;DHT22;4741;49.834;10.740;2022-10-31T09:29:51;12.40;99.90
9403;DHT22;4741;49.834;10.740;2022-10-31T09:32:17;11.80;99.90
9403;DHT22;4741;49.834;10.740;2022-10-31T09:34:44;13.80;99.90
9403;DHT22;4741;49.834;10.740;2022-10-31T09:37:11;13.30;99.90
9403;DHT22;4741;49.834;10.740;2022-10-31T09:40:15;12.50;99.90
9403;DHT22;4741;49.834;10.740;2022-10-31T09:51:22;12.80;99.90
9403;DHT22;4741;49.834;10.740;2022-10-31T09:53:51;13.10;99.90
9403;DHT22;4741;49.834;10.740;2022-10-31T09:56:20;12.90;99.90
9403;DHT22;4741;49.834;10.740;2022-10-31T09:58:48;13.70;99.90
9403;DHT22;4741;49.834;10.740;2022-10-31T10:01:22;14.20;99.90
9403;DHT22;4741;49.834;10.740;2022-10-31T10:03:50;12.30;99.90
9403;DHT22;4741;49.834;10.740;2022-10-31T10:06:21;14.50;99.90
9403;DHT22;4741;49.834;10.740;2022-10-31T10:08:49;14.60;99.90
9403;DHT22;4741;49.834;10.740;2022-10-31T10:11:28;13.00;99.90
9403;DHT22;4741;49.834;10.740;2022-10-31T10:19:07;13.60;99.90
9403;DHT22;4741;49.834;10.740;2022-10-31T10:26:39;13.40;99.90
9403;DHT22;4741;49.834;10.740;2022-10-31T10:29:12;13.60;99.90
9403;DHT22;4741;49.834;10.740;2022-10-31T10:31:43;13.80;99.90
9403;DHT22;4741;49.834;10.740;2022-10-31T10:34:29;13.70;99.90
9403;DHT22;4741;49.834;10.740;2022-10-31T10:36:58;13.50;99.90
9403;DHT22;4741;49.834;10.740;2022-10-31T10:39:31;13.40;99.90
9403;DHT22;4741;49.834;10.740;2022-10-31T10:41:59;13.10;99.90
9403;DHT22;4741;49.834;10.740;2022-10-31T10:44:46;13.10;99.90
9403;DHT22;4741;49.834;10.740;2022-10-31T10:47:41;13.20;99.90
9403;DHT22;4741;49.834;10.740;2022-10-31T10:50:32;13.40;99.90
9403;DHT22;4741;49.834;10.740;2022-10-31T10:58:28;14.00;99.90
9403;DHT22;4741;49.834;10.740;2022-10-31T11:00:55;13.20;99.90
9403;DHT22;4741;49.834;10.740;2022-10-31T11:03:22;14.20;99.90
9403;DHT22;4741;49.834;10.740;2022-10-31T11:05:52;13.70;99.90
9403;DHT22;4741;49.834;10.740;2022-10-31T11:08:32;13.80;99.90
9403;DHT22;4741;49.834;10.740;2022-10-31T11:13:46;14.00;99.90
9403;DHT22;4741;49.834;10.740;2022-10-31T11:16:14;14.00;99.90
9403;DHT22;4741;49.834;10.740;2022-10-31T11:18:43;13.50;99.90
9403;DHT22;4741;49.834;10.740;2022-10-31T11:21:21;13.70;99.90
9403;DHT22;4741;49.834;10.740;2022-10-31T11:23:48;13.60;99.90
9403;DHT22;4741;49.834;10.740;2022-10-31T11:26:21;13.70;99.90
9403;DHT22;4741;49.834;10.740;2022-10-31T11:28:57;13.40;99.90
9403;DHT22;4741;49.834;10.740;2022-10-31T11:31:25;13.60;99.90
9403;DHT22;4741;49.834;10.740;2022-10-31T11:33:55;13.20;99.90
9403;DHT22;4741;49.834;10.740;2022-10-31T11:36:26;13.80;99.90
9403;DHT22;4741;49.834;10.740;2022-10-31T11:38:53;13.50;99.90
9403;DHT22;4741;49.834;10.740;2022-10-31T11:41:24;13.40;99.90
9403;DHT22;4741;49.834;10.740;2022-10-31T11:43:54;14.10;99.90
9403;DHT22;4741;49.834;10.740;2022-10-31T11:46:24;15.00;99.90
9403;DHT22;4741;49.834;10.740;2022-10-31T11:48:53;14.80;99.90
9403;DHT22;4741;49.834;10.740;2022-10-31T11:51:21;14.60;99.90
9403;DHT22;4741;49.834;10.740;2022-10-31T11:53:50;14.00;99.90
9403;DHT22;4741;49.834;10.740;2022-10-31T11:56:20;14.20;99.90
9403;DHT22;4741;49.834;10.740;2022-10-31T11:58:56;14.30;99.90
9403;DHT22;4741;49.834;10.740;2022-10-31T12:01:25;14.40;99.90
9403;DHT22;4741;49.834;10.740;2022-10-31T12:04:11;13.80;99.90
9403;DHT22;4741;49.834;10.740;2022-10-31T12:06:39;14.40;99.90
9403;DHT22;4741;49.834;10.740;2022-10-31T12:09:49;14.20;99.90
9403;DHT22;4741;49.834;10.740;2022-10-31T12:15:39;15.00;99.90
9403;DHT22;4741;49.834;10.740;2022-10-31T12:28:10;15.20;99.90
9403;DHT22;4741;49.834;10.740;2022-10-31T12:33:29;15.50;99.90
9403;DHT22;4741;49.834;10.740;2022-10-31T12:41:19;16.10;99.90
9403;DHT22;4741;49.834;10.740;2022-10-31T12:44:00;16.30;99.90
9403;DHT22;4741;49.834;10.740;2022-10-31T12:49:17;16.60;99.90
9403;DHT22;4741;49.834;10.740;2022-10-31T12:57:32;16.70;99.90
9403;DHT22;4741;49.834;10.740;2022-10-31T13:00:04;16.40;99.90
9403;DHT22;4741;49.834;10.740;2022-10-31T13:07:36;16.70;99.90
9403;DHT22;4741;49.834;10.740;2022-10-31T13:12:57;15.90;99.90
9403;DHT22;4741;49.834;10.740;2022-10-31T13:16:17;16.60;99.90
9403;DHT22;4741;49.834;10.740;2022-10-31T13:19:02;17.10;99.90
9403;DHT22;4741;49.834;10.740;2022-10-31T13:21:44;16.60;99.90
9403;DHT22;4741;49.834;10.740;2022-10-31T13:24:16;16.70;99.90
9403;DHT22;4741;49.834;10.740;2022-10-31T13:26:46;16.60;99.90
9403;DHT22;4741;49.834;10.740;2022-10-31T13:29:26;16.70;99.90
9403;DHT22;4741;49.834;10.740;2022-10-31T13:31:59;16.70;99.90
9403;DHT22;4741;49.834;10.740;2022-10-31T13:37:43;16.40;99.90
9403;DHT22;4741;49.834;10.740;2022-10-31T13:40:18;16.40;99.90
9403;DHT22;4741;49.834;10.740;2022-10-31T13:45:17;16.80;99.90
9403;DHT22;4741;49.834;10.740;2022-10-31T13:47:54;16.40;99.90
9403;DHT22;4741;49.834;10.740;2022-10-31T13:50:26;16.50;99.90
9403;DHT22;4741;49.834;10.740;2022-10-31T13:53:03;16.20;99.90
9403;DHT22;4741;49.834;10.740;2022-10-31T13:55:37;16.60;99.90
9403;DHT22;4741;49.834;10.740;2022-10-31T13:58:26;16.10;99.90
9403;DHT22;4741;49.834;10.740;2022-10-31T14:03:29;15.90;99.90
9403;DHT22;4741;49.834;10.740;2022-10-31T14:06:17;15.80;99.90
9403;DHT22;4741;49.834;10.740;2022-10-31T14:08:48;15.90;99.90
9403;DHT22;4741;49.834;10.740;2022-10-31T14:11:24;15.90;99.90
9403;DHT22;4741;49.834;10.740;2022-10-31T14:13:51;15.90;99.90
9403;DHT22;4741;49.834;10.740;2022-10-31T14:16:23;16.60;99.90
9403;DHT22;4741;49.834;10.740;2022-10-31T14:18:51;15.70;99.90
9403;DHT22;4741;49.834;10.740;2022-10-31T14:23:53;15.50;99.90
9403;DHT22;4741;49.834;10.740;2022-10-31T14:28:56;15.60;99.90
9403;DHT22;4741;49.834;10.740;2022-10-31T14:31:36;15.50;99.90
9403;DHT22;4741;49.834;10.740;2022-10-31T14:34:21;15.50;99.90
9403;DHT22;4741;49.834;10.740;2022-10-31T14:37:08;15.40;99.90
9403;DHT22;4741;49.834;10.740;2022-10-31T14:44:41;15.40;99.90
9403;DHT22;4741;49.834;10.740;2022-10-31T14:52:10;15.30;99.90
9403;DHT22;4741;49.834;10.740;2022-10-31T14:54:39;14.90;99.90
9403;DHT22;4741;49.834;10.740;2022-10-31T14:57:12;15.10;99.90
9403;DHT22;4741;49.834;10.740;2022-10-31T14:59:41;16.00;99.90
9403;DHT22;4741;49.834;10.740;2022-10-31T15:02:18;16.20;99.90
9403;DHT22;4741;49.834;10.740;2022-10-31T15:04:46;15.10;99.90
9403;DHT22;4741;49.834;10.740;2022-10-31T15:07:20;14.60;99.90
9403;DHT22;4741;49.834;10.740;2022-10-31T15:09:57;15.00;99.90
9403;DHT22;4741;49.834;10.740;2022-10-31T15:12:25;14.90;99.90
9403;DHT22;4741;49.834;10.740;2022-10-31T15:14:52;15.40;99.90
9403;DHT22;4741;49.834;10.740;2022-10-31T15:17:19;15.90;99.90
9403;DHT22;4741;49.834;10.740;2022-10-31T15:19:46;15.20;99.90
9403;DHT22;4741;49.834;10.740;2022-10-31T15:22:17;15.60;99.90
9403;DHT22;4741;49.834;10.740;2022-10-31T15:24:44;15.90;99.90
9403;DHT22;4741;49.834;10.740;2022-10-31T15:27:17;15.30;99.90
9403;DHT22;4741;49.834;10.740;2022-10-31T15:29:54;14.90;99.90
9403;DHT22;4741;49.834;10.740;2022-10-31T15:32:22;15.20;99.90
9403;DHT22;4741;49.834;10.740;2022-10-31T15:34:50;16.10;99.90
9403;DHT22;4741;49.834;10.740;2022-10-31T15:37:18;14.40;99.90
9403;DHT22;4741;49.834;10.740;2022-10-31T15:39:46;15.40;99.90
9403;DHT22;4741;49.834;10.740;2022-10-31T15:42:17;14.00;99.90
9403;DHT22;4741;49.834;10.740;2022-10-31T15:44:46;13.90;99.90
9403;DHT22;4741;49.834;10.740;2022-10-31T15:47:18;15.60;99.90
9403;DHT22;4741;49.834;10.740;2022-10-31T15:49:50;14.60;99.90
9403;DHT22;4741;49.834;10.740;2022-10-31T15:52:34;14.50;99.90
9403;DHT22;4741;49.834;10.740;2022-10-31T15:55:03;14.50;99.90
9403;DHT22;4741;49.834;10.740;2022-10-31T15:57:30;14.40;99.90
9403;DHT22;4741;49.834;10.740;2022-10-31T15:59:57;13.70;99.90
9403;DHT22;4741;49.834;10.740;2022-10-31T16:02:25;14.10;99.90
9403;DHT22;4741;49.834;10.740;2022-10-31T16:04:57;14.10;99.90
9403;DHT22;4741;49.834;10.740;2022-10-31T16:07:24;14.00;99.90
9403;DHT22;4741;49.834;10.740;2022-10-31T16:09:58;13.90;99.90
9403;DHT22;4741;49.834;10.740;2022-10-31T16:12:30;13.80;99.90
9403;DHT22;4741;49.834;10.740;2022-10-31T16:15:14;13.80;99.90
9403;DHT22;4741;49.834;10.740;2022-10-31T16:17:47;13.70;99.90
9403;DHT22;4741;49.834;10.740;2022-10-31T16:20:47;13.70;99.90
9403;DHT22;4741;49.834;10.740;2022-10-31T16:23:19;13.60;99.90
9403;DHT22;4741;49.834;10.740;2022-10-31T16:27:05;13.50;99.90
9403;DHT22;4741;49.834;10.740;2022-10-31T16:29:39;13.40;99.90
9403;DHT22;4741;49.834;10.740;2022-10-31T16:32:35;13.40;99.90
9403;DHT22;4741;49.834;10.740;2022-10-31T16:39:37;13.20;99.90
9403;DHT22;4741;49.834;10.740;2022-10-31T16:42:03;14.90;99.90
9403;DHT22;4741;49.834;10.740;2022-10-31T16:44:30;13.10;99.90
9403;DHT22;4741;49.834;10.740;2022-10-31T16:47:21;13.10;99.90
9403;DHT22;4741;49.834;10.740;2022-10-31T16:49:54;13.20;99.90
9403;DHT22;4741;49.834;10.740;2022-10-31T16:52:21;13.00;99.90
9403;DHT22;4741;49.834;10.740;2022-10-31T16:54:48;12.20;99.90
9403;DHT22;4741;49.834;10.740;2022-10-31T16:57:15;14.60;99.90
9403;DHT22;4741;49.834;10.740;2022-10-31T16:59:43;12.00;99.90
9403;DHT22;4741;49.834;10.740;2022-10-31T17:02:14;11.90;99.90
9403;DHT22;4741;49.834;10.740;2022-10-31T17:04:41;12.80;99.90
9403;DHT22;4741;49.834;10.740;2022-10-31T17:07:08;12.70;99.90
9403;DHT22;4741;49.834;10.740;2022-10-31T17:09:35;12.60;99.90
9403;DHT22;4741;49.834;10.740;2022-10-31T17:12:01;12.60;99.90
9403;DHT22;4741;49.834;10.740;2022-10-31T17:14:28;12.50;99.90
9403;DHT22;4741;49.834;10.740;2022-10-31T17:16:55;12.40;99.90
9403;DHT22;4741;49.834;10.740;2022-10-31T17:19:24;12.00;99.90
9403;DHT22;4741;49.834;10.740;2022-10-31T17:21:51;11.60;99.90
9403;DHT22;4741;49.834;10.740;2022-10-31T17:24:17;12.30;99.90
9403;DHT22;4741;49.834;10.740;2022-10-31T17:26:44;12.30;99.90
9403;DHT22;4741;49.834;10.740;2022-10-31T17:29:12;12.30;99.90
9403;DHT22;4741;49.834;10.740;2022-10-31T17:34:11;12.20;99.90
9403;DHT22;4741;49.834;10.740;2022-10-31T17:36:51;12.20;99.90
9403;DHT22;4741;49.834;10.740;2022-10-31T17:39:18;12.10;99.90
9403;DHT22;4741;49.834;10.740;2022-10-31T17:41:46;13.50;99.90
9403;DHT22;4741;49.834;10.740;2022-10-31T17:44:15;11.80;99.90
9403;DHT22;4741;49.834;10.740;2022-10-31T17:46:41;13.50;99.90
9403;DHT22;4741;49.834;10.740;2022-10-31T17:49:09;13.50;99.90
9403;DHT22;4741;49.834;10.740;2022-10-31T17:51:36;11.50;99.90
9403;DHT22;4741;49.834;10.740;2022-10-31T17:54:03;13.20;99.90
9403;DHT22;4741;49.834;10.740;2022-10-31T17:56:31;11.70;99.90
9403;DHT22;4741;49.834;10.740;2022-10-31T17:58:58;12.90;99.90
9403;DHT22;4741;49.834;10.740;2022-10-31T18:01:24;12.80;99.90
9403;DHT22;4741;49.834;10.740;2022-10-31T18:06:34;11.70;99.90
9403;DHT22;4741;49.834;10.740;2022-10-31T18:09:16;11.60;99.90
9403;DHT22;4741;49.834;10.740;2022-10-31T18:11:44;12.20;99.90
9403;DHT22;4741;49.834;10.740;2022-10-31T18:14:10;10.70;99.90
9403;DHT22;4741;49.834;10.740;2022-10-31T18:16:37;13.60;99.90
9403;DHT22;4741;49.834;10.740;2022-10-31T18:19:03;13.10;99.90
9403;DHT22;4741;49.834;10.740;2022-10-31T18:21:31;13.20;99.90
9403;DHT22;4741;49.834;10.740;2022-10-31T18:23:58;12.10;99.90
9403;DHT22;4741;49.834;10.740;2022-10-31T18:26:25;13.00;99.90
9403;DHT22;4741;49.834;10.740;2022-10-31T18:28:53;10.80;99.90
9403;DHT22;4741;49.834;10.740;2022-10-31T18:31:19;12.80;99.90
9403;DHT22;4741;49.834;10.740;2022-10-31T18:33:46;12.90;99.90
9403;DHT22;4741;49.834;10.740;2022-10-31T18:36:16;13.60;99.90
9403;DHT22;4741;49.834;10.740;2022-10-31T18:38:43;13.00;99.90
9403;DHT22;4741;49.834;10.740;2022-10-31T18:41:13;11.70;99.90
9403;DHT22;4741;49.834;10.740;2022-10-31T18:43:40;12.60;99.90
9403;DHT22;4741;49.834;10.740;2022-10-31T18:46:08;13.00;99.90
9403;DHT22;4741;49.834;10.740;2022-10-31T18:48:36;12.90;99.90
9403;DHT22;4741;49.834;10.740;2022-10-31T18:51:03;10.90;99.90
9403;DHT22;4741;49.834;10.740;2022-10-31T18:53:35;11.60;99.90
9403;DHT22;4741;49.834;10.740;2022-10-31T18:56:06;12.90;99.90
9403;DHT22;4741;49.834;10.740;2022-10-31T18:58:33;11.40;99.90
9403;DHT22;4741;49.834;10.740;2022-10-31T19:01:04;12.80;99.90
9403;DHT22;4741;49.834;10.740;2022-10-31T19:03:31;11.30;99.90
9403;DHT22;4741;49.834;10.740;2022-10-31T19:05:57;11.00;99.90
9403;DHT22;4741;49.834;10.740;2022-10-31T19:08:26;12.80;99.90
9403;DHT22;4741;49.834;10.740;2022-10-31T19:11:05;11.20;99.90
9403;DHT22;4741;49.834;10.740;2022-10-31T19:14:01;11.20;99.90
9403;DHT22;4741;49.834;10.740;2022-10-31T19:16:27;12.00;99.90
9403;DHT22;4741;49.834;10.740;2022-10-31T19:18:55;12.50;99.90
9403;DHT22;4741;49.834;10.740;2022-10-31T19:21:22;10.70;99.90
9403;DHT22;4741;49.834;10.740;2022-10-31T19:23:50;12.40;99.90
9403;DHT22;4741;49.834;10.740;2022-10-31T19:26:16;11.10;99.90
9403;DHT22;4741;49.834;10.740;2022-10-31T19:28:43;10.40;99.90
9403;DHT22;4741;49.834;10.740;2022-10-31T19:31:10;12.30;99.90
9403;DHT22;4741;49.834;10.740;2022-10-31T19:33:37;12.10;99.90
9403;DHT22;4741;49.834;10.740;2022-10-31T19:36:08;12.70;99.90
9403;DHT22;4741;49.834;10.740;2022-10-31T19:38:36;11.20;99.90
9403;DHT22;4741;49.834;10.740;2022-10-31T19:41:04;11.00;99.90
9403;DHT22;4741;49.834;10.740;2022-10-31T19:45:59;11.20;99.90
9403;DHT22;4741;49.834;10.740;2022-10-31T19:48:26;10.80;99.90
9403;DHT22;4741;49.834;10.740;2022-10-31T19:50:53;12.20;99.90
9403;DHT22;4741;49.834;10.740;2022-10-31T19:53:25;11.90;99.90
9403;DHT22;4741;49.834;10.740;2022-10-31T19:55:51;12.00;99.90
9403;DHT22;4741;49.834;10.740;2022-10-31T19:58:18;12.60;99.90
9403;DHT22;4741;49.834;10.740;2022-10-31T20:00:45;10.80;99.90
9403;DHT22;4741;49.834;10.740;2022-10-31T20:03:11;12.40;99.90
9403;DHT22;4741;49.834;10.740;2022-10-31T20:05:40;12.20;99.90
9403;DHT22;4741;49.834;10.740;2022-10-31T20:08:11;10.20;99.90
9403;DHT22;4741;49.834;10.740;2022-10-31T20:10:39;12.30;99.90
9403;DHT22;4741;49.834;10.740;2022-10-31T20:13:05;12.40;99.90
9403;DHT22;4741;49.834;10.740;2022-10-31T20:15:33;12.50;99.90
9403;DHT22;4741;49.834;10.740;2022-10-31T20:17:59;10.90;99.90
9403;DHT22;4741;49.834;10.740;2022-10-31T20:20:26;12.30;99.90
9403;DHT22;4741;49.834;10.740;2022-10-31T20:22:53;10.30;99.90
9403;DHT22;4741;49.834;10.740;2022-10-31T20:25:20;11.10;99.90
9403;DHT22;4741;49.834;10.740;2022-10-31T20:27:47;10.50;99.90
9403;DHT22;4741;49.834;10.740;2022-10-31T20:30:13;10.80;99.90
9403;DHT22;4741;49.834;10.740;2022-10-31T20:32:40;10.80;99.90
9403;DHT22;4741;49.834;10.740;2022-10-31T20:35:12;10.30;99.90
9403;DHT22;4741;49.834;10.740;2022-10-31T20:37:39;10.50;99.90
9403;DHT22;4741;49.834;10.740;2022-10-31T20:40:06;10.70;99.90
9403;DHT22;4741;49.834;10.740;2022-10-31T20:42:33;10.90;99.90
9403;DHT22;4741;49.834;10.740;2022-10-31T20:44:59;10.80;99.90
9403;DHT22;4741;49.834;10.740;2022-10-31T20:47:26;10.70;99.90
9403;DHT22;4741;49.834;10.740;2022-10-31T20:49:53;10.60;99.90
9403;DHT22;4741;49.834;10.740;2022-10-31T20:52:19;10.60;99.90
9403;DHT22;4741;49.834;10.740;2022-10-31T20:54:46;10.50;99.90
9403;DHT22;4741;49.834;10.740;2022-10-31T20:57:12;10.60;99.90
9403;DHT22;4741;49.834;10.740;2022-10-31T20:59:39;10.70;99.90
9403;DHT22;4741;49.834;10.740;2022-10-31T21:02:06;10.70;99.90
9403;DHT22;4741;49.834;10.740;2022-10-31T21:04:34;10.70;99.90
9403;DHT22;4741;49.834;10.740;2022-10-31T21:07:00;10.70;99.90
9403;DHT22;4741;49.834;10.740;2022-10-31T21:09:27;11.00;99.90
9403;DHT22;4741;49.834;10.740;2022-10-31T21:11:53;10.50;99.90
9403;DHT22;4741;49.834;10.740;2022-10-31T21:14:20;10.40;99.90
9403;DHT22;4741;49.834;10.740;2022-10-31T21:16:47;10.50;99.90
9403;DHT22;4741;49.834;10.740;2022-10-31T21:19:13;10.50;99.90
9403;DHT22;4741;49.834;10.740;2022-10-31T21:21:40;10.50;99.90
9403;DHT22;4741;49.834;10.740;2022-10-31T21:24:09;11.80;99.90
9403;DHT22;4741;49.834;10.740;2022-10-31T21:26:37;10.60;99.90
9403;DHT22;4741;49.834;10.740;2022-10-31T21:29:04;11.80;99.90
9403;DHT22;4741;49.834;10.740;2022-10-31T21:31:32;11.00;99.90
9403;DHT22;4741;49.834;10.740;2022-10-31T21:33:59;10.20;99.90
9403;DHT22;4741;49.834;10.740;2022-10-31T21:36:26;11.70;99.90
9403;DHT22;4741;49.834;10.740;2022-10-31T21:38:53;10.10;99.90
9403;DHT22;4741;49.834;10.740;2022-10-31T21:41:20;9.80;99.90
9403;DHT22;4741;49.834;10.740;2022-10-31T21:48:42;10.00;99.90
9403;DHT22;4741;49.834;10.740;2022-10-31T21:51:10;10.20;99.90
9403;DHT22;4741;49.834;10.740;2022-10-31T21:53:37;9.80;99.90
9403;DHT22;4741;49.834;10.740;2022-10-31T21:56:23;9.80;99.90
9403;DHT22;4741;49.834;10.740;2022-10-31T21:58:50;9.50;99.90
9403;DHT22;4741;49.834;10.740;2022-10-31T22:03:44;9.50;99.90
9403;DHT22;4741;49.834;10.740;2022-10-31T22:06:11;9.50;99.90
9403;DHT22;4741;49.834;10.740;2022-10-31T22:08:38;9.60;99.90
9403;DHT22;4741;49.834;10.740;2022-10-31T22:11:07;9.60;99.90
9403;DHT22;4741;49.834;10.740;2022-10-31T22:13:34;9.60;99.90
9403;DHT22;4741;49.834;10.740;2022-10-31T22:16:01;9.60;99.90
9403;DHT22;4741;49.834;10.740;2022-10-31T22:18:28;9.60;99.90
9403;DHT22;4741;49.834;10.740;2022-10-31T22:21:02;9.60;99.90
9403;DHT22;4741;49.834;10.740;2022-10-31T22:23:29;9.60;99.90
9403;DHT22;4741;49.834;10.740;2022-10-31T22:26:00;9.60;99.90
9403;DHT22;4741;49.834;10.740;2022-10-31T22:28:28;9.40;99.90
9403;DHT22;4741;49.834;10.740;2022-10-31T22:30:54;9.40;99.90
9403;DHT22;4741;49.834;10.740;2022-10-31T22:33:21;9.50;99.90
9403;DHT22;4741;49.834;10.740;2022-10-31T22:35:47;9.20;99.90
9403;DHT22;4741;49.834;10.740;2022-10-31T22:38:14;9.20;99.90
9403;DHT22;4741;49.834;10.740;2022-10-31T22:40:41;9.20;99.90
9403;DHT22;4741;49.834;10.740;2022-10-31T22:43:07;9.20;99.90
9403;DHT22;4741;49.834;10.740;2022-10-31T22:45:34;9.20;99.90
9403;DHT22;4741;49.834;10.740;2022-10-31T22:48:00;9.20;99.90
9403;DHT22;4741;49.834;10.740;2022-10-31T22:50:28;9.20;99.90
9403;DHT22;4741;49.834;10.740;2022-10-31T22:52:54;9.10;99.90
9403;DHT22;4741;49.834;10.740;2022-10-31T22:55:21;9.30;99.90
9403;DHT22;4741;49.834;10.740;2022-10-31T22:57:47;9.00;99.90
9403;DHT22;4741;49.834;10.740;2022-10-31T23:00:14;9.30;99.90
9403;DHT22;4741;49.834;10.740;2022-10-31T23:02:41;9.20;99.90
9403;DHT22;4741;49.834;10.740;2022-10-31T23:05:07;9.10;99.90
9403;DHT22;4741;49.834;10.740;2022-10-31T23:07:34;9.10;99.90
9403;DHT22;4741;49.834;10.740;2022-10-31T23:12:28;9.00;99.90
9403;DHT22;4741;49.834;10.740;2022-10-31T23:15:13;8.90;99.90
9403;DHT22;4741;49.834;10.740;2022-10-31T23:17:39;9.80;99.90
9403;DHT22;4741;49.834;10.740;2022-10-31T23:20:06;8.80;99.90
9403;DHT22;4741;49.834;10.740;2022-10-31T23:22:33;9.10;99.90
9403;DHT22;4741;49.834;10.740;2022-10-31T23:24:59;9.00;99.90
9403;DHT22;4741;49.834;10.740;2022-10-31T23:27:27;8.90;99.90
9403;DHT22;4741;49.834;10.740;2022-10-31T23:29:57;8.90;99.90
9403;DHT22;4741;49.834;10.740;2022-10-31T23:32:25;9.20;99.90
9403;DHT22;4741;49.834;10.740;2022-10-31T23:34:53;8.60;99.90
9403;DHT22;4741;49.834;10.740;2022-10-31T23:37:20;9.10;99.90
9403;DHT22;4741;49.834;10.740;2022-10-31T23:39:48;8.90;99.90
9403;DHT22;4741;49.834;10.740;2022-10-31T23:42:15;9.00;99.90
9403;DHT22;4741;49.834;10.740;2022-10-31T23:44:41;8.90;99.90
9403;DHT22;4741;49.834;10.740;2022-10-31T23:47:08;8.80;99.90
9403;DHT22;4741;49.834;10.740;2022-10-31T23:49:35;9.40;99.90
9403;DHT22;4741;49.834;10.740;2022-10-31T23:52:01;8.70;99.90
9403;DHT22;4741;49.834;10.740;2022-10-31T23:54:29;8.70;99.90
9403;DHT22;4741;49.834;10.740;2022-10-31T23:56:55;8.70;99.90
9403;DHT22;4741;49.834;10.740;2022-10-31T23:59:24;8.70;99.90
